Time;durP1;ratioP1;P1;durP2;ratioP2;P2;SDS_P1;SDS_P2;PMS_P1;PMS_P2;Temp;Humidity;BMP_temperature;BMP_pressure;BME280_temperature;BME280_humidity;BME280_pressure;Samples;Min_cycle;Max_cycle;Signal;HPM_P1;HPM_P2
2021/10/24 00:00:09;;;;;;;12.33;6.77;;;7.70;99.90;;;;;;5053957;28;20033;-82
2021/10/24 00:02:37;;;;;;;18.20;7.50;;;7.60;99.90;;;;;;5054370;28;20400;-83
2021/10/24 00:05:05;;;;;;;13.80;7.30;;;7.60;99.90;;;;;;5054534;28;20608;-82
2021/10/24 00:07:30;;;;;;;13.43;7.00;;;7.60;99.90;;;;;;5054232;28;20112;-82
2021/10/24 00:09:56;;;;;;;14.63;7.23;;;7.50;99.90;;;;;;5053783;28;20437;-82
2021/10/24 00:12:22;;;;;;;15.60;7.57;;;7.50;99.90;;;;;;5054161;28;20028;-82
2021/10/24 00:14:47;;;;;;;16.93;7.90;;;7.50;99.90;;;;;;5054096;28;20374;-83
2021/10/24 00:17:13;;;;;;;13.10;7.40;;;7.50;99.90;;;;;;5054072;28;20071;-83
2021/10/24 00:19:39;;;;;;;13.80;7.50;;;7.40;99.90;;;;;;5052111;28;20032;-83
2021/10/24 00:22:05;;;;;;;16.67;7.90;;;7.40;99.90;;;;;;5076741;22;20049;-81
2021/10/24 00:24:31;;;;;;;11.07;7.00;;;7.40;99.90;;;;;;5052430;28;20108;-82
2021/10/24 00:26:57;;;;;;;14.70;7.13;;;7.40;99.90;;;;;;5053756;28;20495;-84
2021/10/24 00:29:23;;;;;;;13.13;6.83;;;7.50;99.90;;;;;;5051684;28;20057;-81
2021/10/24 00:31:48;;;;;;;14.17;6.80;;;7.50;99.90;;;;;;5053663;28;20018;-82
2021/10/24 00:34:15;;;;;;;11.57;5.70;;;7.40;99.90;;;;;;5053797;28;20025;-81
2021/10/24 00:36:40;;;;;;;12.00;5.73;;;7.40;99.90;;;;;;5053569;28;20055;-82
2021/10/24 00:39:06;;;;;;;9.83;5.60;;;7.40;99.90;;;;;;5052680;28;20028;-81
2021/10/24 00:41:32;;;;;;;10.60;5.73;;;7.40;99.90;;;;;;5053759;28;20036;-82
2021/10/24 00:43:59;;;;;;;12.07;5.30;;;7.40;99.90;;;;;;5053388;28;20025;-85
2021/10/24 00:46:25;;;;;;;11.87;5.03;;;7.40;99.90;;;;;;5052205;28;20032;-82
2021/10/24 00:48:51;;;;;;;8.23;5.03;;;7.40;99.90;;;;;;5053482;28;20427;-81
2021/10/24 00:51:18;;;;;;;13.87;5.60;;;7.30;99.90;;;;;;5053342;28;20044;-81
2021/10/24 00:53:44;;;;;;;9.57;5.20;;;7.40;99.90;;;;;;5051871;28;20028;-84
2021/10/24 00:56:11;;;;;;;9.73;4.83;;;7.40;99.90;;;;;;5053182;28;20029;-81
2021/10/24 00:58:37;;;;;;;12.07;5.57;;;7.40;99.90;;;;;;5052960;28;20017;-82
2021/10/24 01:01:03;;;;;;;10.10;5.23;;;7.40;99.90;;;;;;5052588;28;20021;-82
2021/10/24 01:03:28;;;;;;;9.80;5.17;;;7.40;99.90;;;;;;5051898;28;20035;-82
2021/10/24 01:05:55;;;;;;;9.17;5.37;;;7.40;99.90;;;;;;5052940;28;20025;-84
2021/10/24 01:08:21;;;;;;;9.50;5.27;;;7.50;99.90;;;;;;5053418;28;20465;-83
2021/10/24 01:10:47;;;;;;;8.80;4.97;;;7.50;99.90;;;;;;5052934;28;20029;-83
2021/10/24 01:13:13;;;;;;;9.97;5.27;;;7.60;99.90;;;;;;5053430;28;20029;-83
2021/10/24 01:15:39;;;;;;;9.20;4.83;;;7.60;99.90;;;;;;5053807;28;20075;-83
2021/10/24 01:18:07;;;;;;;9.73;4.60;;;7.60;99.90;;;;;;5053520;28;20035;-83
2021/10/24 01:20:33;;;;;;;9.93;4.50;;;7.60;99.90;;;;;;5053065;28;20044;-84
2021/10/24 01:22:59;;;;;;;12.53;4.87;;;7.70;99.90;;;;;;5051478;28;20487;-83
2021/10/24 01:25:25;;;;;;;9.63;4.63;;;7.70;99.90;;;;;;5053047;28;20055;-83
2021/10/24 01:27:51;;;;;;;11.93;4.77;;;7.80;99.90;;;;;;5053158;28;20082;-84
2021/10/24 01:30:17;;;;;;;7.77;4.30;;;7.80;99.90;;;;;;5052792;28;20482;-83
2021/10/24 01:32:43;;;;;;;8.77;4.73;;;7.90;99.90;;;;;;5053116;28;20032;-83
2021/10/24 01:35:09;;;;;;;8.23;4.53;;;7.90;99.90;;;;;;5053011;28;20033;-83
2021/10/24 01:37:43;;;;;;;9.13;4.50;;;8.00;99.90;;;;;;5053441;28;20033;-83
2021/10/24 01:40:11;;;;;;;8.20;4.60;;;8.00;99.90;;;;;;5053087;28;20287;-84
2021/10/24 01:42:54;;;;;;;9.13;4.50;;;8.00;99.90;;;;;;5056670;28;20024;-83
2021/10/24 01:45:22;;;;;;;8.73;4.60;;;8.00;99.90;;;;;;5055350;28;20044;-84
2021/10/24 01:47:49;;;;;;;11.63;4.85;;;8.00;99.90;;;;;;5056405;28;20029;-84
2021/10/24 01:50:14;;;;;;;10.27;4.50;;;8.00;99.90;;;;;;5056336;28;20424;-84
2021/10/24 01:52:42;;;;;;;9.20;4.40;;;8.00;99.90;;;;;;5056786;28;20022;-84
2021/10/24 01:55:10;;;;;;;9.77;4.70;;;8.00;99.90;;;;;;5057163;28;20071;-84
2021/10/24 01:57:36;;;;;;;8.77;4.33;;;7.90;99.90;;;;;;5057338;28;20040;-84
2021/10/24 02:00:02;;;;;;;9.17;4.90;;;7.90;99.90;;;;;;5057179;28;20033;-83
2021/10/24 02:02:29;;;;;;;10.37;4.77;;;7.90;99.90;;;;;;5057800;28;20028;-84
2021/10/24 02:04:54;;;;;;;9.70;4.93;;;7.90;99.90;;;;;;5057085;28;20021;-84
2021/10/24 02:07:20;;;;;;;10.80;4.37;;;7.90;99.90;;;;;;5055200;28;20469;-83
2021/10/24 02:09:45;;;;;;;11.33;4.73;;;7.80;99.90;;;;;;5053074;28;20027;-83
2021/10/24 02:12:11;;;;;;;12.37;4.90;;;7.60;99.90;;;;;;5053177;28;20024;-84
2021/10/24 02:14:37;;;;;;;9.63;4.30;;;7.50;99.90;;;;;;5054384;28;20377;-84
2021/10/24 02:17:02;;;;;;;10.43;4.87;;;7.50;99.90;;;;;;5054054;28;20025;-83
2021/10/24 02:19:28;;;;;;;9.87;4.60;;;7.40;99.90;;;;;;5057224;28;20029;-83
2021/10/24 02:21:54;;;;;;;7.13;4.47;;;7.50;99.90;;;;;;5056705;28;20041;-83
2021/10/24 02:24:20;;;;;;;10.37;5.23;;;7.50;99.90;;;;;;5056676;28;20110;-84
2021/10/24 02:26:45;;;;;;;8.17;4.43;;;7.50;99.90;;;;;;5057388;28;20032;-84
2021/10/24 02:29:11;;;;;;;9.87;4.90;;;7.40;99.90;;;;;;5056201;28;20044;-83
2021/10/24 02:31:37;;;;;;;14.20;5.20;;;7.30;99.90;;;;;;5055651;28;20025;-83
2021/10/24 02:34:03;;;;;;;8.87;4.70;;;7.30;99.90;;;;;;5055046;28;20032;-83
2021/10/24 02:36:28;;;;;;;9.33;4.40;;;7.20;99.90;;;;;;5055026;28;20496;-83
2021/10/24 02:38:54;;;;;;;8.67;4.27;;;7.20;99.90;;;;;;5057023;28;20064;-82
2021/10/24 02:41:19;;;;;;;7.97;4.20;;;7.10;99.90;;;;;;5057883;28;20088;-84
2021/10/24 02:43:45;;;;;;;10.47;5.17;;;7.20;99.90;;;;;;5056862;28;20025;-83
2021/10/24 02:46:11;;;;;;;9.50;4.73;;;7.10;99.90;;;;;;5054919;28;20627;-83
2021/10/24 02:48:37;;;;;;;8.20;4.50;;;7.10;99.90;;;;;;5056704;28;20043;-84
2021/10/24 02:51:03;;;;;;;9.17;4.63;;;7.20;99.90;;;;;;5056020;28;20108;-83
2021/10/24 02:53:29;;;;;;;8.70;4.13;;;7.20;99.90;;;;;;5056894;28;20017;-83
2021/10/24 02:55:54;;;;;;;10.93;4.70;;;7.20;99.90;;;;;;5056582;28;20036;-83
2021/10/24 02:58:20;;;;;;;9.23;4.47;;;7.30;99.90;;;;;;5056760;28;20032;-83
2021/10/24 03:00:46;;;;;;;10.03;4.27;;;7.10;99.90;;;;;;5056113;28;20025;-83
2021/10/24 03:03:11;;;;;;;9.23;3.83;;;7.20;99.90;;;;;;5055443;28;20382;-84
2021/10/24 03:05:37;;;;;;;7.70;4.20;;;7.20;99.90;;;;;;5057751;28;20075;-83
2021/10/24 03:08:02;;;;;;;7.80;4.07;;;7.20;99.90;;;;;;5057712;28;20548;-83
2021/10/24 03:10:28;;;;;;;10.53;4.30;;;7.20;99.90;;;;;;5054999;28;20025;-83
2021/10/24 03:12:53;;;;;;;9.53;4.30;;;7.10;99.90;;;;;;5057067;28;20555;-83
2021/10/24 03:15:19;;;;;;;12.33;4.70;;;7.10;99.90;;;;;;5056506;28;20048;-83
2021/10/24 03:17:45;;;;;;;9.17;4.60;;;7.10;99.90;;;;;;5056372;28;20033;-84
2021/10/24 03:20:10;;;;;;;12.30;4.70;;;7.10;99.90;;;;;;5054434;28;20025;-83
2021/10/24 03:22:36;;;;;;;7.50;3.90;;;7.00;99.90;;;;;;5056456;28;20508;-84
2021/10/24 03:25:02;;;;;;;6.93;3.90;;;7.10;99.90;;;;;;5056044;28;20086;-83
2021/10/24 03:27:28;;;;;;;6.93;4.20;;;7.10;99.90;;;;;;5056712;28;20029;-83
2021/10/24 03:29:53;;;;;;;8.40;4.53;;;7.10;99.90;;;;;;5053310;28;20040;-84
2021/10/24 03:32:19;;;;;;;7.60;4.20;;;7.10;99.90;;;;;;5055951;28;20023;-84
2021/10/24 03:34:45;;;;;;;9.03;4.00;;;7.10;99.90;;;;;;5056230;28;20474;-84
2021/10/24 03:37:10;;;;;;;7.57;4.20;;;7.20;99.90;;;;;;5056345;28;20051;-83
2021/10/24 03:39:36;;;;;;;9.40;4.20;;;7.20;99.90;;;;;;5055960;28;20438;-83
2021/10/24 03:42:02;;;;;;;7.13;3.70;;;7.20;99.90;;;;;;5056573;28;20091;-83
2021/10/24 03:44:27;;;;;;;9.57;4.30;;;7.20;99.90;;;;;;5054890;28;20056;-84
2021/10/24 03:46:53;;;;;;;12.20;4.40;;;7.10;99.90;;;;;;5054782;28;20028;-84
2021/10/24 03:49:18;;;;;;;7.93;4.17;;;7.00;99.90;;;;;;5054176;28;20033;-83
2021/10/24 03:51:45;;;;;;;7.77;4.30;;;7.00;99.90;;;;;;5054760;28;20043;-84
2021/10/24 03:54:12;;;;;;;11.57;4.37;;;7.00;99.90;;;;;;5056249;28;20033;-82
2021/10/24 03:56:38;;;;;;;8.60;4.20;;;6.90;99.90;;;;;;5054645;28;20029;-84
2021/10/24 03:59:03;;;;;;;10.43;4.03;;;7.00;99.90;;;;;;5053551;28;20021;-84
2021/10/24 04:01:29;;;;;;;7.90;4.07;;;7.00;99.90;;;;;;5056541;28;20055;-83
2021/10/24 04:03:54;;;;;;;8.80;4.03;;;7.00;99.90;;;;;;5056512;28;20028;-84
2021/10/24 04:06:20;;;;;;;11.37;4.37;;;7.00;99.90;;;;;;5055728;28;20029;-83
2021/10/24 04:08:45;;;;;;;10.17;4.30;;;7.10;99.90;;;;;;5055538;28;20520;-84
2021/10/24 04:11:11;;;;;;;10.33;4.23;;;7.00;99.90;;;;;;5055641;28;20048;-84
2021/10/24 04:13:37;;;;;;;9.13;4.20;;;6.90;99.90;;;;;;5056078;28;20025;-84
2021/10/24 04:16:03;;;;;;;7.30;3.90;;;6.90;99.90;;;;;;5056671;28;20044;-82
2021/10/24 04:18:28;;;;;;;8.77;4.13;;;6.90;99.90;;;;;;5056334;28;20107;-82
2021/10/24 04:20:55;;;;;;;11.27;4.83;;;6.90;99.90;;;;;;5055913;28;20021;-83
2021/10/24 04:23:20;;;;;;;9.70;4.50;;;6.90;99.90;;;;;;5056040;28;20074;-84
2021/10/24 04:25:46;;;;;;;8.83;4.20;;;6.90;99.90;;;;;;5054967;28;20021;-84
2021/10/24 04:28:12;;;;;;;9.33;4.57;;;7.00;99.90;;;;;;5056112;28;20394;-84
2021/10/24 04:30:38;;;;;;;9.30;4.40;;;7.00;99.90;;;;;;5055997;28;20025;-83
2021/10/24 04:33:04;;;;;;;7.47;4.27;;;7.00;99.90;;;;;;5056128;28;20029;-83
2021/10/24 04:35:29;;;;;;;7.00;4.17;;;6.90;99.90;;;;;;5054657;28;20385;-84
2021/10/24 04:37:55;;;;;;;6.43;3.80;;;6.80;99.90;;;;;;5056346;28;20025;-83
2021/10/24 04:40:22;;;;;;;7.67;4.20;;;6.80;99.90;;;;;;5055856;28;20025;-84
2021/10/24 04:42:47;;;;;;;8.47;4.13;;;6.90;99.90;;;;;;5056126;28;20469;-83
2021/10/24 04:45:13;;;;;;;11.30;4.43;;;6.90;99.90;;;;;;5054687;28;20029;-84
2021/10/24 04:47:39;;;;;;;11.33;4.40;;;6.80;99.90;;;;;;5056178;28;20334;-84
2021/10/24 04:50:06;;;;;;;8.60;4.33;;;6.80;99.90;;;;;;5055637;28;20017;-84
2021/10/24 04:52:34;;;;;;;10.73;4.73;;;6.70;99.90;;;;;;5056353;28;20489;-83
2021/10/24 04:55:00;;;;;;;10.95;4.80;;;6.60;99.90;;;;;;5054384;28;20088;-84
2021/10/24 04:57:26;;;;;;;14.40;4.70;;;6.60;99.90;;;;;;5055981;28;20563;-84
2021/10/24 04:59:51;;;;;;;9.67;4.97;;;6.60;99.90;;;;;;5055577;28;20104;-84
2021/10/24 05:02:17;;;;;;;7.90;4.60;;;6.60;99.90;;;;;;5056832;28;20021;-85
2021/10/24 05:04:43;;;;;;;11.33;4.47;;;6.60;99.90;;;;;;5056038;28;20025;-85
2021/10/24 05:07:08;;;;;;;8.63;4.10;;;6.50;99.90;;;;;;5056199;28;20036;-84
2021/10/24 05:09:34;;;;;;;9.37;4.50;;;6.50;99.90;;;;;;5055887;28;20044;-84
2021/10/24 05:11:59;;;;;;;7.80;4.37;;;6.50;99.90;;;;;;5056271;28;20047;-84
2021/10/24 05:14:25;;;;;;;11.73;5.20;;;6.40;99.90;;;;;;5055944;28;20020;-83
2021/10/24 05:16:51;;;;;;;10.77;4.93;;;6.40;99.90;;;;;;5057454;28;20021;-84
2021/10/24 05:19:16;;;;;;;11.50;4.90;;;6.40;99.90;;;;;;5055895;28;20067;-84
2021/10/24 05:21:42;;;;;;;9.57;4.80;;;6.40;99.90;;;;;;5056270;28;20040;-85
2021/10/24 05:24:07;;;;;;;10.70;4.50;;;6.40;99.90;;;;;;5056130;28;20021;-84
2021/10/24 05:26:33;;;;;;;8.07;4.10;;;6.30;99.90;;;;;;5056786;28;20096;-84
2021/10/24 05:28:59;;;;;;;10.13;4.30;;;6.30;99.90;;;;;;5054801;28;20024;-84
2021/10/24 05:31:25;;;;;;;10.23;4.63;;;6.40;99.90;;;;;;5055910;28;20575;-83
2021/10/24 05:33:51;;;;;;;10.90;4.77;;;6.40;99.90;;;;;;5056455;28;20025;-84
2021/10/24 05:36:16;;;;;;;8.93;4.60;;;6.30;99.90;;;;;;5056361;28;20478;-84
2021/10/24 05:38:42;;;;;;;9.53;4.30;;;6.30;99.90;;;;;;5056934;28;20021;-85
2021/10/24 05:41:07;;;;;;;11.27;4.73;;;6.30;99.90;;;;;;5055926;28;20473;-84
2021/10/24 05:43:33;;;;;;;20.63;5.20;;;6.30;99.90;;;;;;5056512;28;20072;-84
2021/10/24 05:45:59;;;;;;;7.80;4.60;;;6.20;99.90;;;;;;5056309;28;20063;-84
2021/10/24 05:48:24;;;;;;;8.07;4.10;;;6.20;99.90;;;;;;5056254;28;20049;-84
2021/10/24 05:50:50;;;;;;;10.60;4.53;;;6.20;99.90;;;;;;5056138;28;20120;-84
2021/10/24 05:53:15;;;;;;;11.57;4.90;;;6.20;99.90;;;;;;5057571;28;20029;-83
2021/10/24 05:55:41;;;;;;;9.37;5.20;;;6.20;99.90;;;;;;5058760;28;20091;-82
2021/10/24 05:58:07;;;;;;;8.00;4.63;;;6.10;99.90;;;;;;5058735;28;20032;-84
2021/10/24 06:00:33;;;;;;;9.80;4.50;;;6.20;99.90;;;;;;5057135;28;20432;-82
2021/10/24 06:03:06;;;;;;;9.57;4.63;;;6.30;99.90;;;;;;5058669;28;20111;-84
2021/10/24 06:05:35;;;;;;;11.03;4.43;;;6.20;99.90;;;;;;5059321;28;20027;-84
2021/10/24 06:08:02;;;;;;;8.80;4.50;;;6.20;99.90;;;;;;5059193;28;20067;-84
2021/10/24 06:10:34;;;;;;;12.97;5.43;;;6.10;99.90;;;;;;5059247;28;20067;-83
2021/10/24 06:13:00;;;;;;;10.77;4.63;;;6.10;99.90;;;;;;5059617;28;20021;-84
2021/10/24 06:15:26;;;;;;;9.90;4.20;;;6.10;99.90;;;;;;5059383;28;20020;-84
2021/10/24 06:17:52;;;;;;;8.83;4.87;;;6.10;99.90;;;;;;5059014;28;20529;-83
2021/10/24 06:20:20;;;;;;;9.43;4.30;;;6.20;99.90;;;;;;5058842;28;20100;-83
2021/10/24 06:22:46;;;;;;;8.63;4.57;;;6.20;99.90;;;;;;5079478;22;20096;-81
2021/10/24 06:25:14;;;;;;;10.00;5.00;;;6.30;99.90;;;;;;5056912;28;20025;-81
2021/10/24 06:27:41;;;;;;;8.63;4.53;;;6.20;99.90;;;;;;5056317;28;20032;-84
2021/10/24 06:30:09;;;;;;;10.10;4.50;;;6.20;99.90;;;;;;5057838;28;20024;-84
2021/10/24 06:32:35;;;;;;;8.93;4.23;;;6.30;99.90;;;;;;5057386;28;20024;-84
2021/10/24 06:35:01;;;;;;;8.33;4.20;;;6.30;99.90;;;;;;5057719;28;20389;-84
2021/10/24 06:37:28;;;;;;;10.83;4.67;;;6.40;99.90;;;;;;5055959;28;20112;-83
2021/10/24 06:39:54;;;;;;;9.63;4.77;;;6.40;99.90;;;;;;5055163;28;20029;-81
2021/10/24 06:42:20;;;;;;;8.47;4.57;;;6.50;99.90;;;;;;5057617;28;20393;-81
2021/10/24 06:44:46;;;;;;;11.67;4.57;;;6.50;99.90;;;;;;5057482;28;20437;-83
2021/10/24 06:47:12;;;;;;;8.27;4.73;;;6.50;99.90;;;;;;5056832;28;20175;-84
2021/10/24 06:49:37;;;;;;;9.37;4.23;;;6.50;99.90;;;;;;5056524;28;20462;-84
2021/10/24 06:52:05;;;;;;;12.57;4.60;;;6.50;99.90;;;;;;5057796;28;20029;-84
2021/10/24 06:54:32;;;;;;;11.63;4.87;;;6.40;99.90;;;;;;5057023;28;20033;-81
2021/10/24 06:56:58;;;;;;;9.73;4.80;;;6.40;99.90;;;;;;5056980;28;20055;-84
2021/10/24 06:59:24;;;;;;;7.97;4.90;;;6.40;99.90;;;;;;5058099;28;20025;-81
2021/10/24 07:01:50;;;;;;;11.03;5.47;;;6.50;99.90;;;;;;5056855;28;20029;-84
2021/10/24 07:04:15;;;;;;;10.30;5.43;;;6.50;99.90;;;;;;5056239;28;20032;-83
2021/10/24 07:06:41;;;;;;;11.13;5.87;;;6.60;99.90;;;;;;5056493;28;20037;-83
2021/10/24 07:09:07;;;;;;;9.67;5.10;;;6.60;99.90;;;;;;5055342;28;20029;-84
2021/10/24 07:11:32;;;;;;;9.80;5.03;;;6.60;99.90;;;;;;5057727;28;20024;-84
2021/10/24 07:13:58;;;;;;;12.93;6.27;;;6.60;99.90;;;;;;5057482;28;20032;-84
2021/10/24 07:16:23;;;;;;;14.30;6.50;;;6.60;99.90;;;;;;5057714;28;20075;-84
2021/10/24 07:18:49;;;;;;;11.13;6.07;;;6.60;99.90;;;;;;5057261;28;20025;-83
2021/10/24 07:21:15;;;;;;;11.73;5.50;;;6.60;99.90;;;;;;5056920;28;20075;-84
2021/10/24 07:23:40;;;;;;;11.50;6.20;;;6.70;99.90;;;;;;5055939;28;20033;-81
2021/10/24 07:26:06;;;;;;;11.20;5.87;;;6.70;99.90;;;;;;5055368;28;20020;-81
2021/10/24 07:28:32;;;;;;;11.27;5.83;;;6.70;99.90;;;;;;5056369;28;20028;-82
2021/10/24 07:30:58;;;;;;;11.03;5.40;;;6.70;99.90;;;;;;5054652;28;20032;-84
2021/10/24 07:33:23;;;;;;;10.50;5.60;;;6.70;99.90;;;;;;5054991;28;20028;-84
2021/10/24 07:35:49;;;;;;;13.07;5.60;;;6.80;99.90;;;;;;5056303;28;20025;-84
2021/10/24 07:38:15;;;;;;;11.70;5.43;;;6.80;99.90;;;;;;5055086;28;20021;-84
2021/10/24 07:40:46;;;;;;;11.77;5.43;;;6.90;99.90;;;;;;5055753;28;20029;-84
2021/10/24 07:43:13;;;;;;;10.80;5.67;;;6.90;99.90;;;;;;5054364;28;20115;-84
2021/10/24 07:45:38;;;;;;;14.13;5.40;;;7.00;99.90;;;;;;5055517;28;20028;-84
2021/10/24 07:48:05;;;;;;;10.13;4.97;;;7.00;99.90;;;;;;5054115;28;20029;-83
2021/10/24 07:50:31;;;;;;;10.40;5.00;;;7.10;99.90;;;;;;5053475;28;20025;-83
2021/10/24 07:53:01;;;;;;;7.50;3.90;;;7.20;99.90;;;;;;5053516;28;20017;-83
2021/10/24 07:55:27;;;;;;;7.90;4.17;;;7.30;99.90;;;;;;5055112;28;20017;-83
2021/10/24 07:57:53;;;;;;;8.40;3.90;;;7.30;99.90;;;;;;5053849;28;20028;-83
2021/10/24 08:00:19;;;;;;;9.70;4.00;;;7.40;99.90;;;;;;5054726;28;20075;-81
2021/10/24 08:02:44;;;;;;;10.37;4.47;;;7.50;99.90;;;;;;5054054;28;20047;-81
2021/10/24 08:05:10;;;;;;;8.60;3.73;;;7.60;99.90;;;;;;5054450;28;20477;-81
2021/10/24 08:07:39;;;;;;;8.87;3.80;;;7.60;99.90;;;;;;5054626;28;20029;-81
2021/10/24 08:10:06;;;;;;;6.68;4.20;;;7.60;99.90;;;;;;5054809;28;20020;-83
2021/10/24 08:12:32;;;;;;;9.83;4.33;;;7.70;99.90;;;;;;5054406;28;20068;-83
2021/10/24 08:15:01;;;;;;;9.47;4.33;;;7.80;99.90;;;;;;5054812;28;20017;-83
2021/10/24 08:17:27;;;;;;;10.43;4.40;;;7.90;99.90;;;;;;5056561;28;20538;-83
2021/10/24 08:19:52;;;;;;;8.07;3.60;;;7.90;99.90;;;;;;5053346;28;20039;-83
2021/10/24 08:22:19;;;;;;;11.27;4.77;;;7.90;99.90;;;;;;5055051;28;20037;-83
2021/10/24 08:24:47;;;;;;;6.63;3.97;;;8.00;99.90;;;;;;5055836;28;20021;-83
2021/10/24 08:27:13;;;;;;;13.38;6.30;;;8.10;99.90;;;;;;5054606;28;20025;-83
2021/10/24 08:29:40;;;;;;;15.87;8.70;;;8.20;99.90;;;;;;5054582;28;20028;-83
2021/10/24 08:32:10;;;;;;;16.37;8.47;;;8.30;99.90;;;;;;5057312;28;20028;-84
2021/10/24 08:34:40;;;;;;;13.27;6.67;;;8.30;99.90;;;;;;5056798;28;20025;-83
2021/10/24 08:37:07;;;;;;;11.20;5.03;;;8.30;99.90;;;;;;5055475;28;20025;-83
2021/10/24 08:39:33;;;;;;;9.13;3.90;;;8.40;99.90;;;;;;5056212;28;20052;-83
2021/10/24 08:42:01;;;;;;;7.97;3.80;;;8.40;99.90;;;;;;5055186;28;20374;-83
2021/10/24 08:44:29;;;;;;;7.17;3.17;;;8.50;99.90;;;;;;5055486;28;20029;-83
2021/10/24 08:46:54;;;;;;;7.43;3.33;;;8.50;99.90;;;;;;5055479;28;20028;-84
2021/10/24 08:49:20;;;;;;;8.43;2.73;;;8.60;99.90;;;;;;5055188;28;20388;-83
2021/10/24 08:51:47;;;;;;;8.80;3.10;;;8.60;99.90;;;;;;5055674;28;20025;-83
2021/10/24 08:54:13;;;;;;;7.27;2.70;;;8.70;99.90;;;;;;5055340;28;20025;-83
2021/10/24 08:56:39;;;;;;;8.83;2.53;;;8.80;99.90;;;;;;5054406;28;20561;-83
2021/10/24 08:59:05;;;;;;;4.97;2.50;;;8.80;99.90;;;;;;5054070;28;20056;-83
2021/10/24 09:01:32;;;;;;;5.97;2.60;;;8.90;99.90;;;;;;5054104;28;20032;-83
2021/10/24 09:04:12;;;;;;;7.13;2.90;;;9.00;99.90;;;;;;5056409;28;20021;-83
2021/10/24 09:06:55;;;;;;;9.00;3.10;;;9.00;99.90;;;;;;5056176;28;20021;-83
2021/10/24 09:09:35;;;;;;;7.93;2.93;;;9.10;99.90;;;;;;5054091;28;20520;-83
2021/10/24 09:12:05;;;;;;;7.60;3.30;;;9.10;99.90;;;;;;5054812;28;20512;-83
2021/10/24 09:14:48;;;;;;;7.47;3.13;;;9.20;99.90;;;;;;5054075;28;20029;-83
2021/10/24 09:17:25;;;;;;;5.73;2.50;;;9.20;99.90;;;;;;5054771;28;20074;-83
2021/10/24 09:20:00;;;;;;;6.97;2.57;;;9.30;99.90;;;;;;5054198;28;20519;-83
2021/10/24 09:22:33;;;;;;;6.50;2.67;;;9.40;99.90;;;;;;5053157;28;20029;-83
2021/10/24 09:25:12;;;;;;;6.30;2.37;;;9.40;99.90;;;;;;5053639;28;20060;-83
2021/10/24 09:27:49;;;;;;;7.80;3.00;;;9.40;99.90;;;;;;5052770;28;20484;-83
2021/10/24 09:30:23;;;;;;;11.80;3.10;;;9.50;99.90;;;;;;5052594;28;20021;-84
2021/10/24 09:33:21;;;;;;;7.70;2.67;;;9.50;99.90;;;;;;5054368;28;20017;-83
2021/10/24 09:35:50;;;;;;;6.47;2.90;;;9.60;99.90;;;;;;5041847;28;20028;-83
2021/10/24 09:38:16;;;;;;;7.40;2.63;;;9.60;99.90;;;;;;5054230;28;20017;-83
2021/10/24 09:40:48;;;;;;;10.70;2.87;;;9.60;99.90;;;;;;5052430;28;20606;-83
2021/10/24 09:43:18;;;;;;;9.17;3.03;;;9.70;99.90;;;;;;5052557;28;20112;-83
2021/10/24 09:45:50;;;;;;;8.63;2.57;;;9.70;99.90;;;;;;5052972;28;20033;-83
2021/10/24 09:48:19;;;;;;;8.87;2.67;;;9.80;99.90;;;;;;5052839;28;20424;-84
2021/10/24 09:50:51;;;;;;;7.45;2.85;;;9.90;99.90;;;;;;5054052;28;20025;-83
2021/10/24 09:53:27;;;;;;;9.43;3.07;;;10.00;99.90;;;;;;5054026;28;20028;-83
2021/10/24 09:55:53;;;;;;;5.27;2.20;;;9.90;99.90;;;;;;5055208;28;20031;-84
2021/10/24 09:58:32;;;;;;;8.03;2.93;;;10.00;99.90;;;;;;5054218;28;20111;-84
2021/10/24 10:00:59;;;;;;;7.35;3.05;;;10.00;99.90;;;;;;5053525;28;20048;-83
2021/10/24 10:03:26;;;;;;;6.07;2.37;;;10.00;99.90;;;;;;5052761;28;20025;-84
2021/10/24 10:05:56;;;;;;;7.33;2.77;;;10.10;99.90;;;;;;5053948;28;20025;-83
2021/10/24 10:08:21;;;;;;;5.53;2.40;;;10.10;99.90;;;;;;5052688;28;20503;-83
2021/10/24 10:11:09;;;;;;;6.63;2.90;;;10.10;99.90;;;;;;5053245;28;20022;-83
2021/10/24 10:13:39;;;;;;;7.63;2.73;;;10.10;99.90;;;;;;5052313;28;20025;-84
2021/10/24 10:16:18;;;;;;;7.13;3.50;;;10.20;99.90;;;;;;5052345;28;20024;-84
2021/10/24 10:18:55;;;;;;;6.57;3.00;;;10.20;99.90;;;;;;5051555;28;20083;-83
2021/10/24 10:21:30;;;;;;;6.30;3.00;;;10.20;99.90;;;;;;5053120;28;20100;-84
2021/10/24 10:23:56;;;;;;;6.57;3.10;;;10.20;99.90;;;;;;5053534;28;20029;-84
2021/10/24 10:26:40;;;;;;;6.07;2.43;;;10.30;99.90;;;;;;5051243;28;20033;-84
2021/10/24 10:29:11;;;;;;;5.87;2.80;;;10.30;99.90;;;;;;5053085;28;20080;-84
2021/10/24 10:31:38;;;;;;;6.97;3.27;;;10.30;99.90;;;;;;5053497;28;20029;-84
2021/10/24 10:34:08;;;;;;;7.90;2.53;;;10.40;99.90;;;;;;5052038;28;20025;-84
2021/10/24 10:36:49;;;;;;;6.07;2.60;;;10.40;99.90;;;;;;5051859;28;20029;-84
2021/10/24 10:39:35;;;;;;;7.60;2.80;;;10.40;99.90;;;;;;5056126;28;20086;-84
2021/10/24 10:42:07;;;;;;;6.43;3.00;;;10.50;99.90;;;;;;5054994;28;20063;-83
2021/10/24 10:44:36;;;;;;;4.50;2.10;;;10.60;99.90;;;;;;5055792;28;20492;-84
2021/10/24 10:47:40;;;;;;;5.17;2.43;;;10.60;99.90;;;;;;5056774;28;20064;-83
2021/10/24 10:50:28;;;;;;;8.53;2.60;;;10.70;99.90;;;;;;5054780;28;20025;-84
2021/10/24 10:52:54;;;;;;;4.50;2.30;;;10.70;99.90;;;;;;5057219;28;20031;-84
2021/10/24 10:55:21;;;;;;;6.37;3.03;;;10.70;99.90;;;;;;5055379;28;20028;-84
2021/10/24 10:57:47;;;;;;;7.67;3.50;;;10.70;99.90;;;;;;5055720;28;20126;-84
2021/10/24 11:00:33;;;;;;;8.67;3.40;;;10.80;99.90;;;;;;5055495;28;20047;-84
2021/10/24 11:02:58;;;;;;;6.67;2.93;;;10.80;99.90;;;;;;5057124;28;20032;-84
2021/10/24 11:05:42;;;;;;;6.30;2.97;;;10.80;99.90;;;;;;5057092;28;20468;-83
2021/10/24 11:08:48;;;;;;;7.73;3.10;;;10.80;99.90;;;;;;5057188;28;20093;-84
2021/10/24 11:11:13;;;;;;;7.23;2.50;;;10.90;99.90;;;;;;5055393;28;20032;-84
2021/10/24 11:13:39;;;;;;;7.80;2.93;;;11.00;99.90;;;;;;5057343;28;20029;-84
2021/10/24 11:16:37;;;;;;;8.63;3.10;;;10.90;99.90;;;;;;5057119;28;20029;-84
2021/10/24 11:19:25;;;;;;;7.33;2.80;;;11.00;99.40;;;;;;5055084;28;20142;-84
2021/10/24 11:21:55;;;;;;;5.40;2.50;;;11.10;99.10;;;;;;5055934;28;20738;-81
2021/10/24 11:24:25;;;;;;;5.93;2.17;;;11.10;99.20;;;;;;5057262;28;20041;-82
2021/10/24 11:26:57;;;;;;;6.57;2.37;;;11.10;99.00;;;;;;5055607;28;20036;-81
2021/10/24 11:29:23;;;;;;;5.63;2.17;;;11.10;99.10;;;;;;5056448;28;20018;-84
2021/10/24 11:32:08;;;;;;;6.40;2.20;;;11.10;99.30;;;;;;5054672;28;20021;-83
2021/10/24 11:34:34;;;;;;;6.77;2.30;;;11.20;99.40;;;;;;5056292;28;20025;-83
2021/10/24 11:36:59;;;;;;;6.40;2.40;;;11.20;99.30;;;;;;5056608;28;20020;-83
2021/10/24 11:39:25;;;;;;;6.77;2.67;;;11.20;99.00;;;;;;5056543;28;20032;-84
2021/10/24 11:42:12;;;;;;;5.43;2.53;;;11.30;99.20;;;;;;5055446;28;20060;-84
2021/10/24 11:44:37;;;;;;;8.03;2.50;;;11.30;98.80;;;;;;5055537;28;20120;-83
2021/10/24 11:47:15;;;;;;;5.53;2.20;;;11.40;99.00;;;;;;5056673;28;20056;-84
2021/10/24 11:49:48;;;;;;;6.93;2.70;;;11.40;99.30;;;;;;5054212;28;20025;-84
2021/10/24 11:52:29;;;;;;;7.17;2.40;;;11.40;99.50;;;;;;5055954;28;20021;-82
2021/10/24 11:55:12;;;;;;;8.17;2.70;;;11.40;99.20;;;;;;5056531;28;20013;-84
2021/10/24 12:00:21;;;;;;;4.60;2.00;;;11.40;98.90;;;;;;5056175;28;20071;-84
2021/10/24 12:03:00;;;;;;;5.85;2.40;;;11.40;99.10;;;;;;5055876;28;20052;-84
2021/10/24 12:05:31;;;;;;;4.87;2.30;;;11.30;99.60;;;;;;5056376;28;20029;-84
2021/10/24 12:08:04;;;;;;;6.23;2.23;;;11.30;99.40;;;;;;5056377;28;20024;-84
2021/10/24 12:10:46;;;;;;;4.73;2.10;;;11.40;99.30;;;;;;5054983;28;20021;-84
2021/10/24 12:13:32;;;;;;;5.33;2.10;;;11.40;98.60;;;;;;5055826;28;20417;-84
2021/10/24 12:15:57;;;;;;;6.80;2.20;;;11.50;98.50;;;;;;5056302;28;20212;-84
2021/10/24 12:18:35;;;;;;;5.93;2.27;;;11.60;98.10;;;;;;5056187;28;20021;-84
2021/10/24 12:21:03;;;;;;;7.60;2.27;;;11.60;98.30;;;;;;5054407;28;20029;-84
2021/10/24 12:23:37;;;;;;;7.07;2.67;;;11.70;98.30;;;;;;5056362;28;20096;-84
2021/10/24 12:26:05;;;;;;;6.77;2.43;;;11.70;98.50;;;;;;5056318;28;20481;-84
2021/10/24 12:28:40;;;;;;;7.68;2.13;;;11.70;98.30;;;;;;5054847;28;20120;-84
2021/10/24 12:31:16;;;;;;;4.37;2.10;;;11.80;98.40;;;;;;5055697;28;20512;-82
2021/10/24 12:33:45;;;;;;;4.60;2.10;;;11.80;98.60;;;;;;5057715;28;20029;-82
2021/10/24 12:36:12;;;;;;;;;;;11.70;98.50;;;;;;5060617;28;20052;-82
2021/10/24 12:38:55;;;;;;;5.03;2.07;;;11.70;98.40;;;;;;5060242;28;19997;-82
2021/10/24 12:41:40;;;;;;;5.07;2.37;;;11.80;98.10;;;;;;5058269;28;20084;-82
2021/10/24 12:44:11;;;;;;;4.73;2.10;;;11.80;98.00;;;;;;5059050;28;20028;-81
2021/10/24 12:46:38;;;;;;;7.67;2.43;;;11.90;97.70;;;;;;5053363;28;20029;-83
2021/10/24 12:49:13;;;;;;;5.67;2.17;;;11.90;97.90;;;;;;5052431;28;20025;-83
2021/10/24 12:51:40;;;;;;;9.30;1.80;;;11.90;97.90;;;;;;5053521;28;20025;-84
2021/10/24 12:54:09;;;;;;;4.87;1.70;;;11.90;97.90;;;;;;5054225;28;20111;-84
2021/10/24 12:56:37;;;;;;;7.78;2.22;;;11.90;97.90;;;;;;5053796;28;20036;-82
2021/10/24 12:59:03;;;;;;;4.73;2.10;;;12.00;97.70;;;;;;5053589;28;20036;-82
2021/10/24 13:01:34;;;;;;;7.10;1.83;;;12.10;97.80;;;;;;5053286;28;20264;-82